Etusivu
METAR-TAF:

METAR-TAF

Lentoasemat :

Caro, Michigan, Yhdysvallat

Leveyspiiri: 43-27-31N, Pituuspiiri: 083-26-43W, korkeus merenpinnasta: 214 m

Tämänhetkinen sää

Tämä raportti tehtiin 19 minuuttia sitten, kello 04.36 UTC
Tuuli 9 kn lännestä/luoteesta puuskistuen 14 kn:hen
Lämpötila -5°C
Kosteus 68%
Ilmanpaine 1013 hPa
Näkyvyys: 16.1 km
Hajonneita pilviä 3100 ft:n korkeudessa
Pilvistä 3700 ft:n korkeudessa

METAR: KCFS 290436Z AUTO 29009G14KT 10SM BKN031 OVC037 M05/M10 A2992 RMK AO2 T10471103

Aika: 23:55 (04:55 UTC)


TAF: puuttuu

Säähavainnot ja -ennusteet yli 4000 lentoasemalta (METAR- ja TAF-raportit).

Käytössä olevat sääasemat on merkitty karttaan keltaisilla ja punaisilla pisteillä.

Aseta hiiri pisteen päälle nähdäksesi sääaseman nimen.

Klikkaa sitten nähdäksesi säähavainnot ja -ennusteet.

Kartan vaihtaminen: klikkaa mustalla rastilla varustettuja vihreitä pisteitä, niin voit zoomata sisään; viivalla varustettua vihreää pistettä, niin voit zoomata ulos tai vihreitä nuolia, niin pääset viereisille kartoille.


METAR-TAF: